createdAt,value
2023-04-29T00:01:58.876Z,71.57
2023-04-29T00:04:26.720Z,72.19
2023-04-29T00:06:54.274Z,72.54
2023-04-29T00:09:22.601Z,74.49
2023-04-29T00:11:50.431Z,74.37
2023-04-29T00:14:19.170Z,74.42
2023-04-29T00:16:46.879Z,74.22
2023-04-29T00:19:14.301Z,73.83
2023-04-29T00:21:41.698Z,73.35
2023-04-29T00:24:09.095Z,73.70
2023-04-29T00:26:36.489Z,73.08
2023-04-29T00:29:03.913Z,73.39
2023-04-29T00:31:32.987Z,73.88
2023-04-29T00:34:00.752Z,73.42
2023-04-29T00:36:28.392Z,73.65
2023-04-29T00:38:55.784Z,74.25
2023-04-29T00:41:23.187Z,72.53
2023-04-29T00:43:50.697Z,73.50
2023-04-29T00:46:18.248Z,73.81
2023-04-29T00:48:46.992Z,74.12
2023-04-29T00:51:14.901Z,74.33
2023-04-29T00:53:42.868Z,73.42
2023-04-29T00:56:11.405Z,74.04
2023-04-29T00:58:39.154Z,74.93
2023-04-29T01:01:07.227Z,73.74
2023-04-29T01:03:34.703Z,74.42
2023-04-29T01:06:10.053Z,78.37
2023-04-29T01:08:46.292Z,79.07
2023-04-29T01:11:14.654Z,78.80
2023-04-29T01:13:47.093Z,79.30
2023-04-29T01:16:23.864Z,80.46
2023-04-29T01:18:56.315Z,81.69
2023-04-29T01:21:25.968Z,82.40
2023-04-29T01:23:56.398Z,82.98
2023-04-29T01:26:24.429Z,84.65
2023-04-29T01:28:58.603Z,85.34
2023-04-29T01:31:31.979Z,83.33
2023-04-29T01:34:07.894Z,85.17
2023-04-29T01:36:46.184Z,91.55
2023-04-29T01:39:20.358Z,91.78
2023-04-29T01:41:54.660Z,87.58
2023-04-29T01:44:25.572Z,86.41
2023-04-29T01:46:54.845Z,85.41
2023-04-29T01:49:22.485Z,85.51
2023-04-29T01:51:49.847Z,85.82
2023-04-29T01:54:18.668Z,86.75
2023-04-29T01:56:47.033Z,85.60
2023-04-29T01:59:14.607Z,90.65
2023-04-29T02:01:42.121Z,89.60
2023-04-29T02:04:09.582Z,87.39
2023-04-29T02:06:36.996Z,86.75
2023-04-29T02:09:04.528Z,87.37
2023-04-29T02:11:33.246Z,86.28
2023-04-29T02:14:00.763Z,86.60
2023-04-29T02:16:28.173Z,86.71
2023-04-29T02:18:55.569Z,87.16
2023-04-29T02:21:22.988Z,88.66
2023-04-29T02:23:50.394Z,88.49
2023-04-29T02:26:17.963Z,89.60
2023-04-29T02:28:47.241Z,86.75
2023-04-29T02:31:14.665Z,87.31
2023-04-29T02:33:42.113Z,89.05
2023-04-29T02:36:09.653Z,87.87
2023-04-29T02:38:37.053Z,88.14
2023-04-29T02:41:04.440Z,90.05
2023-04-29T02:43:31.892Z,88.57
2023-04-29T02:46:01.108Z,88.04
2023-04-29T02:48:28.641Z,87.15
2023-04-29T02:50:56.098Z,88.79
2023-04-29T02:53:23.490Z,86.76
2023-04-29T02:55:51.057Z,87.56
2023-04-29T02:58:18.533Z,87.89
2023-04-29T03:00:45.996Z,87.45
2023-04-29T03:03:14.908Z,87.26
2023-04-29T03:05:42.473Z,87.39
2023-04-29T03:08:10.619Z,87.35
2023-04-29T03:10:41.246Z,88.47
2023-04-29T03:13:09.205Z,89.27
2023-04-29T03:15:36.762Z,88.32
2023-04-29T03:18:05.048Z,87.79
2023-04-29T03:20:33.831Z,91.17
2023-04-29T03:23:02.213Z,97.22
2023-04-29T03:25:30.135Z,94.87
2023-04-29T03:27:57.555Z,96.41
2023-04-29T03:30:24.970Z,92.79
2023-04-29T03:32:52.430Z,91.00
2023-04-29T03:35:20.029Z,91.99
2023-04-29T03:37:48.761Z,89.77
2023-04-29T03:40:16.439Z,90.35
2023-04-29T03:42:43.870Z,89.56
2023-04-29T03:45:13.107Z,92.13
2023-04-29T03:47:40.764Z,91.57
2023-04-29T03:50:09.136Z,90.40
2023-04-29T03:52:37.389Z,91.33
2023-04-29T03:55:07.247Z,90.21
2023-04-29T03:57:34.646Z,91.17
2023-04-29T04:00:02.042Z,91.18
2023-04-29T04:02:29.667Z,90.80
2023-04-29T04:04:58.981Z,90.82
2023-04-29T04:07:26.405Z,91.57
2023-04-29T04:09:54.283Z,94.84
2023-04-29T04:12:23.260Z,93.72
2023-04-29T04:14:51.271Z,91.20
2023-04-29T04:17:18.642Z,91.64
2023-04-29T04:19:46.097Z,91.39
2023-04-29T04:22:13.650Z,90.22
2023-04-29T04:24:41.100Z,91.50
2023-04-29T04:27:08.726Z,89.94
2023-04-29T04:29:37.420Z,91.45
2023-04-29T04:32:05.251Z,92.72
2023-04-29T04:34:32.858Z,91.81
2023-04-29T04:37:00.270Z,91.24
2023-04-29T04:39:27.648Z,89.85
2023-04-29T04:41:55.092Z,91.23
2023-04-29T04:44:23.265Z,92.92
2023-04-29T04:46:52.815Z,90.88
2023-04-29T04:49:20.331Z,91.89
2023-04-29T04:51:47.763Z,91.99
2023-04-29T04:54:15.155Z,92.72
2023-04-29T04:56:42.591Z,92.85
2023-04-29T04:59:10.005Z,92.21
2023-04-29T05:01:37.543Z,91.40
2023-04-29T05:04:06.762Z,91.45
2023-04-29T05:06:34.341Z,91.87
2023-04-29T05:09:01.760Z,92.53
2023-04-29T05:11:29.292Z,92.70
2023-04-29T05:13:56.670Z,92.06
2023-04-29T05:16:24.091Z,92.64
2023-04-29T05:18:51.502Z,94.50
2023-04-29T05:21:20.210Z,93.88
2023-04-29T05:23:47.630Z,92.99
2023-04-29T05:26:14.999Z,93.38
2023-04-29T05:28:42.446Z,93.06
2023-04-29T05:31:09.925Z,93.19
2023-04-29T05:33:37.388Z,91.82
2023-04-29T05:36:05.146Z,92.74
2023-04-29T05:38:33.841Z,93.62
2023-04-29T05:41:01.335Z,92.67
2023-04-29T05:43:28.804Z,92.17
2023-04-29T05:45:56.813Z,91.94
2023-04-29T05:48:24.771Z,92.54
2023-04-29T05:50:52.212Z,92.17
2023-04-29T05:53:19.577Z,92.59
2023-04-29T05:55:51.234Z,92.66
2023-04-29T05:58:19.011Z,91.79
2023-04-29T06:00:46.681Z,93.16
2023-04-29T06:03:14.215Z,93.56
2023-04-29T06:05:42.013Z,93.76
2023-04-29T06:08:10.611Z,93.32
2023-04-29T06:10:38.027Z,92.99
2023-04-29T06:13:06.778Z,94.12
2023-04-29T06:15:34.254Z,93.32
2023-04-29T06:18:01.676Z,93.90
2023-04-29T06:20:29.081Z,92.67
2023-04-29T06:22:56.509Z,92.54
2023-04-29T06:25:24.123Z,94.29
2023-04-29T06:27:51.507Z,94.56
2023-04-29T06:30:20.852Z,97.21
2023-04-29T06:32:48.315Z,99.51
2023-04-29T06:35:16.082Z,100.00
2023-04-29T06:37:43.502Z,100.00
2023-04-29T06:40:12.253Z,100.00
2023-04-29T06:42:39.739Z,100.00
2023-04-29T06:45:08.452Z,100.00
2023-04-29T06:47:37.221Z,100.00
2023-04-29T06:50:05.135Z,100.00
2023-04-29T06:52:33.373Z,100.00
2023-04-29T06:55:00.830Z,100.00
2023-04-29T06:57:28.298Z,100.00
2023-04-29T06:59:55.995Z,100.00
2023-04-29T07:02:23.456Z,100.00
2023-04-29T07:04:52.544Z,100.00
2023-04-29T07:07:20.136Z,100.00
2023-04-29T07:09:48.671Z,100.00
2023-04-29T07:12:16.042Z,100.00
2023-04-29T07:14:43.447Z,100.00
2023-04-29T07:17:13.380Z,100.00
2023-04-29T07:19:41.578Z,100.00
2023-04-29T07:22:10.574Z,100.00
2023-04-29T07:24:38.224Z,100.00
2023-04-29T07:27:05.598Z,100.00
2023-04-29T07:29:34.161Z,100.00
2023-04-29T07:32:01.567Z,100.00
2023-04-29T07:34:28.966Z,100.00
2023-04-29T07:36:57.275Z,100.00
2023-04-29T07:39:26.212Z,100.00
2023-04-29T07:41:53.591Z,100.00
2023-04-29T07:44:22.090Z,100.00
2023-04-29T07:46:49.694Z,100.00
2023-04-29T07:49:17.106Z,100.00
2023-04-29T07:51:44.842Z,100.00
2023-04-29T07:54:12.353Z,100.00
2023-04-29T07:56:41.089Z,100.00
2023-04-29T07:59:08.522Z,100.00
2023-04-29T08:01:35.920Z,100.00
2023-04-29T08:04:03.489Z,100.00
2023-04-29T08:06:30.971Z,100.00
2023-04-29T08:08:58.392Z,100.00
2023-04-29T08:11:26.947Z,100.00
2023-04-29T08:13:57.219Z,100.00
2023-04-29T08:16:26.138Z,100.00
2023-04-29T08:18:59.789Z,100.00
2023-04-29T08:21:33.658Z,100.00
2023-04-29T08:24:05.356Z,100.00
2023-04-29T08:26:33.978Z,100.00
2023-04-29T08:29:09.588Z,100.00
2023-04-29T08:31:37.437Z,100.00
2023-04-29T08:34:21.300Z,100.00
2023-04-29T08:36:58.228Z,100.00
2023-04-29T08:39:31.520Z,100.00
2023-04-29T08:42:00.597Z,100.00
2023-04-29T08:44:51.646Z,100.00
2023-04-29T08:47:24.768Z,100.00
2023-04-29T08:49:57.092Z,100.00
2023-04-29T08:52:35.402Z,100.00
2023-04-29T08:55:06.847Z,100.00
2023-04-29T08:57:54.288Z,100.00
2023-04-29T09:00:29.173Z,92.57
2023-04-29T09:03:05.553Z,90.88
2023-04-29T09:05:46.748Z,87.78
2023-04-29T09:08:19.525Z,91.27
2023-04-29T09:10:55.653Z,91.37
2023-04-29T09:13:31.836Z,86.24
2023-04-29T09:16:01.743Z,86.85
2023-04-29T09:18:51.953Z,84.82
2023-04-29T09:21:22.794Z,90.79
2023-04-29T09:24:02.357Z,95.76
2023-04-29T09:26:45.762Z,100.00
2023-04-29T09:29:21.480Z,100.00
2023-04-29T09:31:54.868Z,100.00
2023-04-29T09:34:34.454Z,100.00
2023-04-29T09:37:10.815Z,100.00
2023-04-29T09:39:47.155Z,100.00
2023-04-29T09:42:15.960Z,100.00
2023-04-29T09:44:45.648Z,100.00
2023-04-29T09:47:15.292Z,100.00
2023-04-29T09:49:56.220Z,100.00
2023-04-29T09:52:24.978Z,100.00
2023-04-29T09:55:09.640Z,100.00
2023-04-29T09:57:45.663Z,100.00
2023-04-29T10:00:19.177Z,100.00
2023-04-29T10:02:51.334Z,100.00
2023-04-29T10:05:21.053Z,100.00
2023-04-29T10:07:51.592Z,100.00
2023-04-29T10:10:22.567Z,100.00
2023-04-29T10:12:54.531Z,100.00
2023-04-29T10:15:33.815Z,100.00
2023-04-29T10:18:18.311Z,100.00
2023-04-29T10:20:49.000Z,100.00
2023-04-29T10:23:19.205Z,100.00
2023-04-29T10:25:55.877Z,100.00
2023-04-29T10:28:37.378Z,97.63
2023-04-29T10:31:10.615Z,100.00
2023-04-29T10:34:05.901Z,99.89
2023-04-29T10:36:46.148Z,98.78
2023-04-29T10:39:28.884Z,98.51
2023-04-29T10:42:00.001Z,99.57
2023-04-29T10:44:36.056Z,98.52
2023-04-29T10:47:28.286Z,97.79
2023-04-29T10:50:11.419Z,99.69
2023-04-29T10:52:56.096Z,99.08
2023-04-29T10:55:30.008Z,99.41
2023-04-29T10:58:00.802Z,96.17
2023-04-29T11:00:29.825Z,93.78
2023-04-29T11:03:00.084Z,93.92
2023-04-29T11:05:36.512Z,93.78
2023-04-29T11:08:15.844Z,93.33
2023-04-29T11:10:51.453Z,91.39
2023-04-29T11:13:30.930Z,93.11
2023-04-29T11:16:07.387Z,92.62
2023-04-29T11:18:41.217Z,89.59
2023-04-29T11:21:18.613Z,89.58
2023-04-29T11:23:53.510Z,90.07
2023-04-29T11:26:21.893Z,87.00
2023-04-29T11:28:54.044Z,85.78
2023-04-29T11:31:25.383Z,87.08
2023-04-29T11:33:56.686Z,87.38
2023-04-29T11:36:33.456Z,86.41
2023-04-29T11:39:09.424Z,88.25
2023-04-29T11:41:43.656Z,86.59
2023-04-29T11:44:14.164Z,85.93
2023-04-29T11:46:50.469Z,87.03
2023-04-29T11:49:20.292Z,86.74
2023-04-29T11:52:01.664Z,84.77
2023-04-29T11:54:35.387Z,84.54
2023-04-29T11:57:05.899Z,84.99
2023-04-29T11:59:34.059Z,82.33
2023-04-29T12:02:11.229Z,83.79
2023-04-29T12:04:47.865Z,85.08
2023-04-29T12:07:23.534Z,86.81
2023-04-29T12:09:52.109Z,87.13
2023-04-29T12:12:24.269Z,84.59
2023-04-29T12:14:56.010Z,88.22
2023-04-29T12:17:27.750Z,87.65
2023-04-29T12:19:57.360Z,87.12
2023-04-29T12:22:32.845Z,88.49
2023-04-29T12:25:02.221Z,89.19
2023-04-29T12:27:32.921Z,87.78
2023-04-29T12:30:08.637Z,87.03
2023-04-29T12:32:39.594Z,86.08
2023-04-29T12:35:22.139Z,84.37
2023-04-29T12:37:53.775Z,85.09
2023-04-29T12:40:23.239Z,84.77
2023-04-29T12:42:52.128Z,85.03
2023-04-29T12:45:31.245Z,83.69
2023-04-29T12:48:01.154Z,83.67
2023-04-29T12:50:33.197Z,86.13
2023-04-29T12:53:04.183Z,84.91
2023-04-29T12:55:36.104Z,84.54
2023-04-29T12:58:12.708Z,84.49
2023-04-29T13:00:40.986Z,83.48
2023-04-29T13:03:12.499Z,83.73
2023-04-29T13:05:43.929Z,82.14
2023-04-29T13:08:19.472Z,81.79
2023-04-29T13:10:47.827Z,82.69
2023-04-29T13:13:16.508Z,81.47
2023-04-29T13:15:45.282Z,81.03
2023-04-29T13:18:15.505Z,79.96
2023-04-29T13:23:17.392Z,77.02
2023-04-29T13:25:57.368Z,79.00
2023-04-29T13:28:28.468Z,78.94
2023-04-29T13:33:56.186Z,81.29
2023-04-29T13:36:24.745Z,79.91
2023-04-29T13:38:55.691Z,80.06
2023-04-29T13:41:26.008Z,79.45
2023-04-29T13:43:58.563Z,78.00
2023-04-29T13:46:26.235Z,77.45
2023-04-29T13:52:09.568Z,77.82
2023-04-29T13:54:53.338Z,78.08
2023-04-29T13:57:37.255Z,79.40
2023-04-29T13:59:52.196Z,78.49
2023-04-29T14:04:51.689Z,78.99
2023-04-29T14:07:19.294Z,78.94
2023-04-29T14:09:49.295Z,79.03
2023-04-29T14:12:16.749Z,77.68
2023-04-29T14:14:44.237Z,77.35
2023-04-29T14:17:11.645Z,77.37
2023-04-29T14:19:39.091Z,77.49
2023-04-29T14:22:06.487Z,77.99
2023-04-29T14:24:33.945Z,76.95
2023-04-29T14:27:03.305Z,76.75
2023-04-29T14:29:30.845Z,77.39
2023-04-29T14:31:58.268Z,75.96
2023-04-29T14:34:25.740Z,74.43
2023-04-29T14:36:53.183Z,75.34
2023-04-29T14:39:20.655Z,74.23
2023-04-29T14:41:48.727Z,73.60
2023-04-29T14:44:17.612Z,73.76
2023-04-29T14:46:45.138Z,72.39
2023-04-29T14:49:12.798Z,72.59
2023-04-29T14:51:40.355Z,72.22
2023-04-29T14:54:09.108Z,72.05
2023-04-29T14:56:37.835Z,71.60
2023-04-29T14:59:07.250Z,70.81
2023-04-29T15:01:36.647Z,70.95
2023-04-29T15:04:05.605Z,70.18
2023-04-29T15:06:33.252Z,69.74
2023-04-29T15:09:01.116Z,69.43
2023-04-29T15:11:28.547Z,68.91
2023-04-29T15:13:56.470Z,69.80
2023-04-29T15:16:24.040Z,69.72
2023-04-29T15:18:52.784Z,70.07
2023-04-29T15:21:20.985Z,70.86
2023-04-29T15:23:48.598Z,71.04
2023-04-29T15:26:16.034Z,70.54
2023-04-29T15:28:45.698Z,71.08
2023-04-29T15:31:13.556Z,70.84
2023-04-29T15:33:41.160Z,70.02
2023-04-29T15:36:09.922Z,69.95
2023-04-29T15:38:37.315Z,69.19
2023-04-29T15:41:04.971Z,68.74
2023-04-29T15:43:33.440Z,69.64
2023-04-29T15:46:00.984Z,67.97
2023-04-29T15:48:28.406Z,67.33
2023-04-29T15:50:56.142Z,69.41
2023-04-29T15:53:24.906Z,67.86
2023-04-29T15:55:52.348Z,67.90
2023-04-29T15:58:19.749Z,69.24
2023-04-29T16:00:47.255Z,69.86
2023-04-29T16:03:14.848Z,69.32
2023-04-29T16:05:42.461Z,70.75
2023-04-29T16:08:10.072Z,69.43
2023-04-29T16:10:38.816Z,68.43
2023-04-29T16:13:06.352Z,69.42
2023-04-29T16:15:33.845Z,69.28
2023-04-29T16:18:01.732Z,66.80
2023-04-29T16:20:29.294Z,67.47
2023-04-29T16:22:56.693Z,69.16
2023-04-29T16:25:24.097Z,70.63
2023-04-29T16:27:52.830Z,69.21
2023-04-29T16:30:20.234Z,68.14
2023-04-29T16:32:47.666Z,70.16
2023-04-29T16:35:15.180Z,69.25
2023-04-29T16:37:42.569Z,67.04
2023-04-29T16:40:11.292Z,69.43
2023-04-29T16:42:38.720Z,69.23
2023-04-29T16:45:09.423Z,67.90
2023-04-29T16:47:37.587Z,66.19
2023-04-29T16:50:08.168Z,65.03
2023-04-29T16:52:35.598Z,65.84
2023-04-29T16:55:03.684Z,64.04
2023-04-29T16:57:31.921Z,59.21
2023-04-29T16:59:59.404Z,57.95
2023-04-29T17:02:28.801Z,58.24
2023-04-29T17:04:56.436Z,58.16
2023-04-29T17:07:24.122Z,58.14
2023-04-29T17:09:52.292Z,58.02
2023-04-29T17:12:19.858Z,58.11
2023-04-29T17:14:48.362Z,58.41
2023-04-29T17:17:15.827Z,58.45
2023-04-29T17:19:45.206Z,58.29
2023-04-29T17:22:12.586Z,58.21
2023-04-29T17:24:39.964Z,58.08
2023-04-29T17:27:07.353Z,58.45
2023-04-29T17:29:34.760Z,58.45
2023-04-29T17:32:09.490Z,58.64
2023-04-29T17:34:37.431Z,58.44
2023-04-29T17:37:06.535Z,58.77
2023-04-29T17:39:34.595Z,58.50
2023-04-29T17:42:02.121Z,59.14
2023-04-29T17:44:29.554Z,59.03
2023-04-29T17:46:57.020Z,59.55
2023-04-29T17:49:24.926Z,59.04
2023-04-29T17:51:52.665Z,58.57
2023-04-29T17:54:21.465Z,58.59
2023-04-29T17:56:49.041Z,59.13
2023-04-29T17:59:16.509Z,59.02
2023-04-29T18:01:44.009Z,59.29
2023-04-29T18:04:12.121Z,59.58
2023-04-29T18:06:39.718Z,58.72
2023-04-29T18:09:07.337Z,58.24
2023-04-29T18:11:36.598Z,58.83
2023-04-29T18:14:04.811Z,59.02
2023-04-29T18:16:32.302Z,58.43
2023-04-29T18:18:59.838Z,58.94
2023-04-29T18:21:28.723Z,58.73
2023-04-29T18:23:56.721Z,58.21
2023-04-29T18:26:24.721Z,59.10
2023-04-29T18:28:53.575Z,59.28
2023-04-29T18:31:23.188Z,58.96
2023-04-29T18:33:50.654Z,58.97
2023-04-29T18:36:21.075Z,59.49
2023-04-29T18:38:48.614Z,59.17
2023-04-29T18:41:16.237Z,59.83
2023-04-29T18:43:43.655Z,59.49
2023-04-29T18:46:12.465Z,59.64
2023-04-29T18:48:40.600Z,59.66
2023-04-29T18:51:08.032Z,59.83
2023-04-29T18:53:35.482Z,60.48
2023-04-29T18:56:03.367Z,60.16
2023-04-29T18:58:30.804Z,59.46
2023-04-29T19:00:59.938Z,60.19
2023-04-29T19:03:29.041Z,60.94
2023-04-29T19:05:56.957Z,59.49
2023-04-29T19:08:24.500Z,59.42
2023-04-29T19:10:53.435Z,59.07
2023-04-29T19:13:21.267Z,59.74
2023-04-29T19:15:50.651Z,60.64
2023-04-29T19:18:19.971Z,59.78
2023-04-29T19:20:48.958Z,58.77
2023-04-29T19:23:16.700Z,59.07
2023-04-29T19:25:44.145Z,59.02
2023-04-29T19:28:11.589Z,59.64
2023-04-29T19:30:39.062Z,59.81
2023-04-29T19:33:08.398Z,60.01
2023-04-29T19:35:35.867Z,60.43
2023-04-29T19:38:07.504Z,60.13
2023-04-29T19:40:35.070Z,60.03
2023-04-29T19:43:03.188Z,59.97
2023-04-29T19:45:30.603Z,59.92
2023-04-29T19:48:01.836Z,60.46
2023-04-29T19:50:29.391Z,60.29
2023-04-29T19:52:57.108Z,60.66
2023-04-29T19:55:26.489Z,60.23
2023-04-29T19:57:53.976Z,60.24
2023-04-29T20:00:21.540Z,60.95
2023-04-29T20:02:51.402Z,61.03
2023-04-29T20:05:19.653Z,61.05
2023-04-29T20:07:50.037Z,60.91
2023-04-29T20:10:17.489Z,60.86
2023-04-29T20:12:46.650Z,61.85
2023-04-29T20:15:14.161Z,60.79
2023-04-29T20:17:41.709Z,61.56
2023-04-29T20:20:10.343Z,62.54
2023-04-29T20:22:41.079Z,62.28
2023-04-29T20:25:08.907Z,61.37
2023-04-29T20:27:36.581Z,61.35
2023-04-29T20:30:06.695Z,61.38
2023-04-29T20:32:34.228Z,61.51
2023-04-29T20:35:01.697Z,61.82
2023-04-29T20:37:29.368Z,61.62
2023-04-29T20:39:56.871Z,62.03
2023-04-29T20:42:24.333Z,61.25
2023-04-29T20:44:51.944Z,61.77
2023-04-29T20:47:21.350Z,62.77
2023-04-29T20:49:49.564Z,62.74
2023-04-29T20:52:17.375Z,62.70
2023-04-29T20:54:45.203Z,63.30
2023-04-29T20:57:12.634Z,63.93
2023-04-29T20:59:40.097Z,63.20
2023-04-29T21:02:08.110Z,63.34
2023-04-29T21:04:37.010Z,63.43
2023-04-29T21:07:07.017Z,63.83
2023-04-29T21:09:35.873Z,63.20
2023-04-29T21:12:05.276Z,63.14
2023-04-29T21:14:32.789Z,63.13
2023-04-29T21:17:00.462Z,63.98
2023-04-29T21:19:28.258Z,64.27
2023-04-29T21:21:57.015Z,65.94
2023-04-29T21:24:24.519Z,65.96
2023-04-29T21:26:51.985Z,67.53
2023-04-29T21:29:20.203Z,68.14
2023-04-29T21:31:47.773Z,67.19
2023-04-29T21:34:15.356Z,68.72
2023-04-29T21:36:42.825Z,69.07
2023-04-29T21:39:11.815Z,70.86
2023-04-29T21:41:40.113Z,70.46
2023-04-29T21:44:08.343Z,70.86
2023-04-29T21:46:37.017Z,69.52
2023-04-29T21:49:04.858Z,70.28
2023-04-29T21:51:32.683Z,71.10
2023-04-29T21:54:00.388Z,72.04
2023-04-29T21:56:29.205Z,71.20
2023-04-29T21:58:56.695Z,71.96
2023-04-29T22:01:39.627Z,70.95
2023-04-29T22:04:07.487Z,72.08
2023-04-29T22:06:35.235Z,71.74
2023-04-29T22:09:02.882Z,79.76
2023-04-29T22:11:31.752Z,75.72
2023-04-29T22:13:59.263Z,75.62
2023-04-29T22:16:26.857Z,71.56
2023-04-29T22:18:54.651Z,70.64
2023-04-29T22:21:22.269Z,70.44
2023-04-29T22:23:50.215Z,70.13
2023-04-29T22:26:18.562Z,70.36
2023-04-29T22:28:47.333Z,71.60
2023-04-29T22:31:14.763Z,72.05
2023-04-29T22:33:42.229Z,71.88
2023-04-29T22:36:09.698Z,71.66
2023-04-29T22:38:37.843Z,71.47
2023-04-29T22:41:05.813Z,72.01
2023-04-29T22:43:33.248Z,71.56
2023-04-29T22:46:02.135Z,71.46
2023-04-29T22:48:29.699Z,72.30
2023-04-29T22:50:59.710Z,72.54
2023-04-29T22:53:27.514Z,72.42
2023-04-29T22:55:56.398Z,72.76
2023-04-29T22:58:25.757Z,73.51
2023-04-29T23:00:55.922Z,73.14
2023-04-29T23:03:25.425Z,72.89
2023-04-29T23:05:54.946Z,71.16
2023-04-29T23:08:22.418Z,71.28
2023-04-29T23:10:50.295Z,71.07
2023-04-29T23:13:18.607Z,71.16
2023-04-29T23:15:46.420Z,70.90
2023-04-29T23:18:14.027Z,71.55
2023-04-29T23:20:42.904Z,71.18
2023-04-29T23:23:10.415Z,70.60
2023-04-29T23:25:37.819Z,71.47
2023-04-29T23:28:05.481Z,70.92
2023-04-29T23:30:33.084Z,70.65
2023-04-29T23:33:00.770Z,71.51
2023-04-29T23:35:28.199Z,71.79
2023-04-29T23:37:56.944Z,72.69
2023-04-29T23:40:24.432Z,72.03
2023-04-29T23:42:51.858Z,72.75
2023-04-29T23:45:19.299Z,72.82
2023-04-29T23:47:46.793Z,72.90
2023-04-29T23:50:14.254Z,73.20
2023-04-29T23:52:41.702Z,73.54
2023-04-29T23:55:11.305Z,73.40
2023-04-29T23:57:38.773Z,72.38
